Jessica W — WDB8889 — position and weather

sailwx.info

Track history (hours):
 
Tides and Currents Weather Stations Pressure Air Temp Water Temp Dewpoint Dewpoint Depression Visibility Wind Speed Wind Dir Waves Ship Positions

Jessica W

Owner: Block Island Ferry Services LLc, New London, CT. More information available from US FCC via Universal Licensing System and Coast Guard Vessel Documentation Center.

Last reported at 2018-Sep-17 01:07 UTC. Time now 2018-Sep-19 12:33 UTC.
Position N 41°14' W 072°02'.

Length 50 m; draft 3 m.

Type: High speed craft. MMSI: 366965960.

Date/timePositionNaut miles runAvg speedWind from/ knotsBaromVisibWave heightAir tempDewpointWater temp
2018-Sep-17 01:07N 41°14' W 072°02'2230.9
2018-Sep-17 00:25N 41°14' W 071°33'2317.0
2018-Sep-16 23:03N 41°15' W 072°04'234.9
2018-Sep-16 23:00N 41°17' W 072°04'1 0.2
2018-Sep-16 16:14N 41°15' W 072°04'1 0.1
2018-Sep-16 01:08N 41°14' W 072°03'629.0
2018-Sep-16 00:56N 41°15' W 071°56'1330.1
2018-Sep-16 00:30N 41°15' W 071°38'613.0
2018-Sep-16 00:03N 41°10' W 071°33'0 0.0
2018-Sep-16 00:00N 41°10' W 071°33'510.6
2018-Sep-15 23:31N 41°16' W 071°34'1533.5
2018-Sep-15 23:03N 41°15' W 071°54'234.2
2018-Sep-15 23:00N 41°15' W 071°57'18 8.9
2018-Sep-15 21:00N 41°11' W 071°33'1 1.8
2018-Sep-15 20:24N 41°10' W 071°33'0 0.0
2018-Sep-15 18:07N 41°10' W 071°33'0 0.0
2018-Sep-15 17:52N 41°10' W 071°33'0 0.0
2018-Sep-15 17:25N 41°10' W 071°33'  
2018-Sep-08 22:53N 41°16' W 072°04'1 0.6
2018-Sep-08 21:55N 41°17' W 072°04'  
Track history (hours):
 
Tides and Currents Weather Stations Pressure Air Temp Water Temp Dewpoint Dewpoint Depression Visibility Wind Speed Wind Dir Waves Ship Positions

Jessica W

Owner: Block Island Ferry Services LLc, New London, CT. More information available from US FCC via Universal Licensing System and Coast Guard Vessel Documentation Center.

Last reported at 2018-Sep-17 01:07 UTC. Time now 2018-Sep-19 12:33 UTC.
Position N 41°14' W 072°02'.

Length 50 m; draft 3 m.

Type: High speed craft. MMSI: 366965960.

Date/timePositionNaut miles runAvg speedWind from/ knotsBaromVisibWave heightAir tempDewpointWater temp
2018-Sep-17 01:07N 41°14' W 072°02'2230.9
2018-Sep-17 00:25N 41°14' W 071°33'2317.0
2018-Sep-16 23:03N 41°15' W 072°04'234.9
2018-Sep-16 23:00N 41°17' W 072°04'1 0.2
2018-Sep-16 16:14N 41°15' W 072°04'1 0.1
2018-Sep-16 01:08N 41°14' W 072°03'629.0
2018-Sep-16 00:56N 41°15' W 071°56'1330.1
2018-Sep-16 00:30N 41°15' W 071°38'613.0
2018-Sep-16 00:03N 41°10' W 071°33'0 0.0
2018-Sep-16 00:00N 41°10' W 071°33'510.6
2018-Sep-15 23:31N 41°16' W 071°34'1533.5
2018-Sep-15 23:03N 41°15' W 071°54'234.2
2018-Sep-15 23:00N 41°15' W 071°57'18 8.9
2018-Sep-15 21:00N 41°11' W 071°33'1 1.8
2018-Sep-15 20:24N 41°10' W 071°33'0 0.0
2018-Sep-15 18:07N 41°10' W 071°33'0 0.0
2018-Sep-15 17:52N 41°10' W 071°33'0 0.0
2018-Sep-15 17:25N 41°10' W 071°33'  
2018-Sep-08 22:53N 41°16' W 072°04'1 0.6
2018-Sep-08 21:55N 41°17' W 072°04'  

Dump ship's entire track history